Time;durP1;ratioP1;P1;durP2;ratioP2;P2;SDS_P1;SDS_P2;PMS_P1;PMS_P2;Temp;Humidity;BMP_temperature;BMP_pressure;BME280_temperature;BME280_humidity;BME280_pressure;Samples;Min_cycle;Max_cycle;Signal;HPM_P1;HPM_P2
2022/01/14 00:00:20;;;;;;;9.13;3.50;;;1.70;61.20;;;;;;4994796;28;20018;-84
2022/01/14 00:02:46;;;;;;;7.67;2.87;;;1.60;61.00;;;;;;4997614;28;20053;-84
2022/01/14 00:05:11;;;;;;;8.93;3.07;;;1.60;61.10;;;;;;4994911;28;20037;-84
2022/01/14 00:07:37;;;;;;;7.63;4.07;;;1.60;61.60;;;;;;4995515;28;20032;-84
2022/01/14 00:10:03;;;;;;;9.73;4.33;;;1.70;61.50;;;;;;5013322;28;20026;-84
2022/01/14 00:12:36;;;;;;;5.97;3.07;;;1.60;61.40;;;;;;5013776;28;20028;-82
2022/01/14 00:15:23;;;;;;;;;;;1.60;61.60;;;;;;4995772;28;20046;-83
2022/01/14 00:17:48;;;;;;;8.80;4.07;;;1.70;61.70;;;;;;5015921;28;19912;-84
2022/01/14 00:20:14;;;;;;;6.77;3.30;;;1.70;61.20;;;;;;4994608;28;20640;-84
2022/01/14 00:22:39;;;;;;;7.00;2.87;;;1.70;61.10;;;;;;4985139;28;20130;-84
2022/01/14 00:33:09;;;;;;;10.77;4.63;;;1.60;61.70;;;;;;5010353;28;20049;-84
2022/01/14 00:35:41;;;;;;;13.93;5.17;;;1.60;61.50;;;;;;4997859;28;20635;-85
2022/01/14 00:38:07;;;;;;;10.67;5.23;;;1.60;61.40;;;;;;5012701;28;20109;-84
2022/01/14 00:40:33;;;;;;;7.80;4.13;;;1.70;61.10;;;;;;4988019;28;20013;-84
2022/01/14 00:42:59;;;;;;;17.37;4.33;;;1.70;60.90;;;;;;4997882;28;20547;-84
2022/01/14 00:45:26;;;;;;;10.20;4.60;;;1.80;60.80;;;;;;5015393;28;20057;-84
2022/01/14 00:47:51;;;;;;;6.87;3.93;;;1.80;60.80;;;;;;4981033;28;20113;-84
2022/01/14 00:50:19;;;;;;;12.27;4.80;;;1.80;60.60;;;;;;4990866;28;20523;-84
2022/01/14 00:52:46;;;;;;;9.50;3.97;;;1.70;60.60;;;;;;4994306;28;20069;-84
2022/01/14 00:55:14;;;;;;;4.30;2.27;;;1.70;60.70;;;;;;4999495;28;20386;-84
2022/01/14 01:00:19;;;;;;;8.83;3.43;;;1.70;60.90;;;;;;5006895;28;20504;-84
2022/01/14 01:02:45;;;;;;;7.53;3.90;;;1.60;61.10;;;;;;5014750;28;20022;-84
2022/01/14 01:05:13;;;;;;;8.50;3.23;;;1.60;61.10;;;;;;5014513;28;20033;-84
2022/01/14 01:07:45;;;;;;;6.20;3.20;;;1.60;61.10;;;;;;5014766;28;20061;-84
2022/01/14 01:10:11;;;;;;;9.80;3.95;;;1.60;61.20;;;;;;5008909;28;20032;-84
2022/01/14 01:12:50;;;;;;;16.93;6.63;;;1.60;61.20;;;;;;5014427;28;20033;-84
2022/01/14 01:15:17;;;;;;;13.87;6.03;;;1.60;61.20;;;;;;5014584;28;20037;-84
2022/01/14 01:17:44;;;;;;;15.90;7.40;;;1.60;61.10;;;;;;5002515;28;20072;-84
2022/01/14 01:20:17;;;;;;;13.97;6.57;;;1.60;61.10;;;;;;4996810;28;20076;-84
2022/01/14 01:22:48;;;;;;;8.53;4.10;;;1.50;61.00;;;;;;4994257;28;20040;-85
2022/01/14 01:25:16;;;;;;;8.00;3.97;;;1.40;60.90;;;;;;4996781;28;20084;-85
2022/01/14 01:27:44;;;;;;;5.93;2.47;;;1.40;61.40;;;;;;4996363;28;20407;-85
2022/01/14 01:30:27;;;;;;;6.43;2.67;;;1.40;61.50;;;;;;4997508;28;20030;-84
2022/01/14 01:32:54;;;;;;;7.43;2.83;;;1.40;61.50;;;;;;4985291;28;20034;-85
2022/01/14 01:35:20;;;;;;;6.70;3.37;;;1.30;61.60;;;;;;4978903;28;20392;-84
2022/01/14 01:37:46;;;;;;;7.67;3.13;;;1.30;61.80;;;;;;5014430;28;20080;-84
2022/01/14 01:40:14;;;;;;;5.97;3.27;;;1.20;61.80;;;;;;4996836;28;20026;-85
2022/01/14 01:42:42;;;;;;;7.77;3.37;;;1.30;62.50;;;;;;4996585;28;20029;-84
2022/01/14 01:45:11;;;;;;;5.07;2.87;;;1.30;61.90;;;;;;4987740;28;20320;-84
2022/01/14 01:47:38;;;;;;;6.47;3.23;;;1.30;61.90;;;;;;5012231;28;20538;-84
2022/01/14 01:50:24;;;;;;;3.90;2.37;;;1.20;61.90;;;;;;5013983;28;20609;-83
2022/01/14 01:52:50;;;;;;;4.80;2.17;;;1.20;62.10;;;;;;4994674;28;20629;-84
2022/01/14 01:55:18;;;;;;;5.17;3.00;;;1.20;62.10;;;;;;5012990;28;20268;-84
2022/01/14 01:57:45;;;;;;;6.67;2.43;;;1.30;62.10;;;;;;4998161;28;20022;-84
2022/01/14 02:00:13;;;;;;;7.20;2.53;;;1.20;62.10;;;;;;4991892;28;20026;-84
2022/01/14 02:02:39;;;;;;;6.60;3.40;;;1.30;62.20;;;;;;5013752;28;20264;-84
2022/01/14 02:05:06;;;;;;;9.03;3.53;;;1.20;62.00;;;;;;5012645;28;20026;-84
2022/01/14 02:07:35;;;;;;;5.63;2.70;;;1.20;62.10;;;;;;4997875;28;20307;-84
2022/01/14 02:10:02;;;;;;;6.93;2.27;;;1.20;62.10;;;;;;4991793;28;20088;-84
2022/01/14 02:12:37;;;;;;;6.83;2.40;;;1.20;62.20;;;;;;4976670;28;20073;-84
2022/01/14 02:15:14;;;;;;;6.73;2.87;;;1.20;62.10;;;;;;4996740;28;20327;-84
2022/01/14 02:18:13;;;;;;;7.93;2.73;;;1.10;62.20;;;;;;5013852;28;20277;-84
2022/01/14 02:23:17;;;;;;;5.47;2.40;;;1.10;62.30;;;;;;5006159;28;20276;-84
2022/01/14 02:25:45;;;;;;;4.67;2.50;;;1.10;62.40;;;;;;4995830;28;20026;-84
2022/01/14 02:28:16;;;;;;;4.20;2.40;;;1.10;62.50;;;;;;5013393;28;20452;-84
2022/01/14 02:30:45;;;;;;;7.03;2.47;;;1.00;62.40;;;;;;4976624;28;20274;-84
2022/01/14 02:33:11;;;;;;;5.20;2.40;;;1.00;62.70;;;;;;5001754;28;20289;-84
2022/01/14 02:35:39;;;;;;;5.83;2.20;;;1.00;62.90;;;;;;5007462;28;20480;-84
2022/01/14 02:38:05;;;;;;;4.40;2.20;;;1.10;62.80;;;;;;5009486;28;20033;-84
2022/01/14 02:40:31;;;;;;;4.73;1.70;;;1.10;62.60;;;;;;4995358;28;20502;-84
2022/01/14 02:43:00;;;;;;;6.63;3.57;;;1.00;62.60;;;;;;4995640;28;20352;-84
2022/01/14 02:45:31;;;;;;;8.83;3.67;;;1.00;62.80;;;;;;5013210;28;20030;-84
2022/01/14 02:47:56;;;;;;;8.47;3.37;;;1.10;63.00;;;;;;5013510;28;20268;-84
2022/01/14 02:50:24;;;;;;;8.57;4.67;;;1.10;63.00;;;;;;5013124;28;20288;-84
2022/01/14 02:55:29;;;;;;;8.97;3.80;;;1.10;63.30;;;;;;5012125;28;20293;-84
2022/01/14 02:57:58;;;;;;;6.10;3.43;;;1.00;63.10;;;;;;4981269;28;20026;-84
2022/01/14 03:00:30;;;;;;;5.73;2.90;;;1.00;63.10;;;;;;4979028;28;20281;-84
2022/01/14 03:02:58;;;;;;;4.67;2.67;;;1.00;63.20;;;;;;5013050;28;20257;-84
2022/01/14 03:05:27;;;;;;;7.70;3.27;;;1.00;63.10;;;;;;4995414;28;20022;-84
2022/01/14 03:07:53;;;;;;;7.10;3.67;;;1.00;63.00;;;;;;5013095;28;20570;-84
2022/01/14 03:10:20;;;;;;;5.43;3.50;;;1.00;62.90;;;;;;5006851;28;20268;-84
2022/01/14 03:12:46;;;;;;;8.57;3.80;;;1.00;63.20;;;;;;4995367;28;20108;-84
2022/01/14 03:15:14;;;;;;;9.67;5.40;;;1.00;63.20;;;;;;4986300;28;20783;-83
2022/01/14 03:17:41;;;;;;;6.47;2.97;;;1.00;63.20;;;;;;4975951;28;20021;-84
2022/01/14 03:20:10;;;;;;;6.93;4.73;;;1.00;63.00;;;;;;4993045;28;20276;-84
2022/01/14 03:22:36;;;;;;;5.13;2.87;;;1.00;63.70;;;;;;4998607;28;20634;-84
2022/01/14 03:27:52;;;;;;;4.03;2.07;;;0.90;63.30;;;;;;5013418;28;20310;-84
2022/01/14 03:30:17;;;;;;;8.03;2.27;;;0.90;63.50;;;;;;4995245;28;20033;-84
2022/01/14 03:32:44;;;;;;;8.50;4.20;;;0.80;63.70;;;;;;4995232;28;20289;-85
2022/01/14 03:35:11;;;;;;;10.33;4.67;;;0.90;64.00;;;;;;5009722;28;20026;-84
2022/01/14 03:37:37;;;;;;;6.50;3.53;;;0.90;64.00;;;;;;4975683;28;20353;-84
2022/01/14 03:40:05;;;;;;;7.20;3.10;;;1.00;64.40;;;;;;5003315;28;20265;-84
2022/01/14 03:42:32;;;;;;;14.67;5.23;;;1.10;64.30;;;;;;5005983;28;20026;-84
2022/01/14 03:44:58;;;;;;;13.27;6.17;;;1.10;64.20;;;;;;4981384;28;20265;-84
2022/01/14 03:47:23;;;;;;;11.50;4.67;;;1.10;64.10;;;;;;4995108;28;20786;-84
2022/01/14 03:49:49;;;;;;;12.07;4.20;;;1.10;63.80;;;;;;4995162;28;20109;-84
2022/01/14 03:52:16;;;;;;;7.67;3.47;;;1.10;63.80;;;;;;5016526;28;20022;-84
2022/01/14 03:54:42;;;;;;;49.87;15.20;;;1.10;63.80;;;;;;4998823;28;20042;-84
2022/01/14 03:57:07;;;;;;;32.13;11.80;;;1.00;63.80;;;;;;5016484;28;20272;-84
2022/01/14 03:59:33;;;;;;;11.50;4.77;;;1.00;63.90;;;;;;5011545;28;20022;-84
2022/01/14 04:01:59;;;;;;;12.37;5.10;;;1.00;63.90;;;;;;5016255;28;20365;-84
2022/01/14 04:04:25;;;;;;;10.10;4.43;;;1.00;63.80;;;;;;5016282;28;20037;-83
2022/01/14 04:06:50;;;;;;;9.47;4.77;;;1.00;64.00;;;;;;4998703;28;20026;-84
2022/01/14 04:09:16;;;;;;;12.23;3.93;;;1.00;64.10;;;;;;4995911;28;20441;-84
2022/01/14 04:11:44;;;;;;;4.47;2.93;;;1.00;64.20;;;;;;4998347;28;20045;-84
2022/01/14 04:16:52;;;;;;;4.63;1.60;;;1.00;64.10;;;;;;5015805;28;20042;-84
2022/01/14 04:19:18;;;;;;;4.03;1.83;;;1.00;64.10;;;;;;5001299;28;20295;-84
2022/01/14 04:21:44;;;;;;;4.73;2.90;;;0.90;64.30;;;;;;5014785;28;20265;-84
2022/01/14 04:24:09;;;;;;;6.23;2.80;;;1.00;64.20;;;;;;4998132;28;20116;-84
2022/01/14 04:26:35;;;;;;;4.77;2.50;;;1.00;64.40;;;;;;4998434;28;20022;-84
2022/01/14 04:29:01;;;;;;;5.53;2.70;;;1.00;64.30;;;;;;4994395;28;20081;-84
2022/01/14 04:31:26;;;;;;;9.80;4.93;;;1.00;64.20;;;;;;4984851;28;20038;-84
2022/01/14 04:33:52;;;;;;;11.17;5.13;;;1.00;64.40;;;;;;4996847;28;20057;-84
2022/01/14 04:36:18;;;;;;;9.00;4.97;;;0.90;64.50;;;;;;4997940;28;20018;-84
2022/01/14 04:38:44;;;;;;;8.37;3.83;;;0.80;64.50;;;;;;4998091;28;20664;-84
2022/01/14 04:41:10;;;;;;;9.67;4.93;;;0.90;65.00;;;;;;4993050;28;20022;-84
2022/01/14 04:43:37;;;;;;;7.47;4.33;;;0.90;65.10;;;;;;5009315;28;20033;-84
2022/01/14 04:48:33;;;;;;;6.43;3.60;;;1.10;65.10;;;;;;4996066;28;20026;-84
2022/01/14 04:51:01;;;;;;;6.00;2.90;;;1.10;64.90;;;;;;4978483;28;20049;-84
2022/01/14 04:53:28;;;;;;;12.03;5.60;;;1.10;64.80;;;;;;4995923;28;20027;-84
2022/01/14 04:55:55;;;;;;;16.60;8.20;;;1.10;64.90;;;;;;4978725;28;20308;-84
2022/01/14 04:58:24;;;;;;;14.17;7.30;;;1.10;64.80;;;;;;4985999;28;20265;-84
2022/01/14 05:00:50;;;;;;;13.80;6.53;;;1.10;64.80;;;;;;4996498;28;20022;-83
2022/01/14 05:03:16;;;;;;;7.80;4.30;;;1.10;64.70;;;;;;5010073;28;20415;-84
2022/01/14 05:05:45;;;;;;;8.70;3.50;;;1.00;64.20;;;;;;4998226;28;20029;-84
2022/01/14 05:08:18;;;;;;;6.50;3.53;;;1.00;64.60;;;;;;4997549;28;20427;-84
2022/01/14 05:11:03;;;;;;;7.10;4.07;;;0.90;64.60;;;;;;4997364;28;20281;-84
2022/01/14 05:13:30;;;;;;;11.63;3.67;;;0.90;64.80;;;;;;4995826;28;20026;-84
2022/01/14 05:15:56;;;;;;;6.97;3.60;;;1.00;64.90;;;;;;4980188;28;20042;-83
2022/01/14 05:18:23;;;;;;;6.67;4.10;;;1.00;64.80;;;;;;4990118;28;20792;-84
2022/01/14 05:20:48;;;;;;;9.30;4.20;;;0.90;64.80;;;;;;4991673;28;20060;-84
2022/01/14 05:23:14;;;;;;;23.90;10.07;;;0.90;64.80;;;;;;4997019;28;20375;-84
2022/01/14 05:25:40;;;;;;;21.53;5.67;;;0.90;65.00;;;;;;4997239;28;20076;-84
2022/01/14 05:28:06;;;;;;;10.30;3.90;;;0.80;64.80;;;;;;5014694;28;20428;-84
2022/01/14 05:30:32;;;;;;;7.00;4.23;;;0.80;64.90;;;;;;4997040;28;20476;-85
2022/01/14 05:32:58;;;;;;;8.37;4.33;;;0.80;65.10;;;;;;4990746;28;20038;-84
2022/01/14 05:35:26;;;;;;;8.13;4.33;;;0.80;65.00;;;;;;4995284;28;20268;-84
2022/01/14 05:37:53;;;;;;;9.20;5.53;;;0.80;65.20;;;;;;5014509;28;20022;-84
2022/01/14 05:40:21;;;;;;;13.07;5.10;;;0.90;65.20;;;;;;4994160;28;20065;-85
2022/01/14 05:42:47;;;;;;;12.33;6.33;;;0.90;65.20;;;;;;4996825;28;20291;-84
2022/01/14 05:45:15;;;;;;;7.90;4.80;;;0.90;65.20;;;;;;5014207;28;20022;-84
2022/01/14 05:47:41;;;;;;;9.20;5.17;;;0.90;65.00;;;;;;4996621;28;20052;-84
2022/01/14 05:50:19;;;;;;;10.47;5.73;;;0.90;65.10;;;;;;5014006;28;20276;-84
2022/01/14 05:52:45;;;;;;;8.07;4.40;;;0.90;65.20;;;;;;5014099;28;20078;-84
2022/01/14 05:55:13;;;;;;;12.10;4.57;;;0.90;65.30;;;;;;5014017;28;20293;-84
2022/01/14 05:57:40;;;;;;;8.07;5.03;;;0.90;65.40;;;;;;4996472;28;20026;-84
2022/01/14 06:00:16;;;;;;;8.37;5.20;;;1.00;65.20;;;;;;4991484;28;20269;-84
2022/01/14 06:02:43;;;;;;;6.47;3.90;;;1.10;65.70;;;;;;4994511;28;20265;-84
2022/01/14 06:05:08;;;;;;;7.57;4.60;;;1.10;65.20;;;;;;4990416;28;20794;-84
2022/01/14 06:07:34;;;;;;;9.43;5.07;;;1.00;65.30;;;;;;5002672;28;20030;-84
2022/01/14 06:10:00;;;;;;;9.30;5.50;;;1.00;65.40;;;;;;4996201;28;20044;-84
2022/01/14 06:12:26;;;;;;;11.17;6.47;;;0.90;65.30;;;;;;4996091;28;20060;-84
2022/01/14 06:14:51;;;;;;;12.00;5.97;;;0.90;65.40;;;;;;4995504;28;20025;-84
2022/01/14 06:17:17;;;;;;;9.63;5.23;;;0.80;65.30;;;;;;5005970;28;20369;-84
2022/01/14 06:19:43;;;;;;;60.10;6.80;;;0.80;65.10;;;;;;5009740;28;20038;-84
2022/01/14 06:22:08;;;;;;;10.97;5.80;;;0.70;65.30;;;;;;4981959;28;20021;-84
2022/01/14 06:24:34;;;;;;;11.67;7.30;;;0.70;65.40;;;;;;5012962;28;20366;-84
2022/01/14 06:27:01;;;;;;;12.27;6.83;;;0.80;65.70;;;;;;4995041;28;20430;-84
2022/01/14 06:29:27;;;;;;;15.37;9.70;;;0.80;65.70;;;;;;4984407;28;20022;-84
2022/01/14 06:31:52;;;;;;;9.47;5.10;;;0.80;65.50;;;;;;5012880;28;20152;-84
2022/01/14 06:34:18;;;;;;;11.87;5.77;;;0.80;66.00;;;;;;5011430;28;20030;-84
2022/01/14 06:36:44;;;;;;;14.57;5.80;;;0.90;66.00;;;;;;5005555;28;20048;-84
2022/01/14 06:39:10;;;;;;;13.03;7.07;;;0.90;65.70;;;;;;5005815;28;20022;-84
2022/01/14 06:41:37;;;;;;;9.03;5.63;;;1.00;65.50;;;;;;5012875;28;20024;-84
2022/01/14 06:44:04;;;;;;;10.97;5.97;;;1.00;65.40;;;;;;4993117;28;20675;-84
2022/01/14 06:46:29;;;;;;;11.47;7.40;;;1.00;65.60;;;;;;4994850;28;20350;-84
2022/01/14 06:48:55;;;;;;;8.83;4.73;;;1.00;65.50;;;;;;5002843;28;20121;-84
2022/01/14 06:51:21;;;;;;;8.63;5.37;;;1.00;66.10;;;;;;4999971;28;20033;-84
2022/01/14 06:53:46;;;;;;;12.60;5.77;;;1.00;65.70;;;;;;5001094;28;20026;-83
2022/01/14 06:56:14;;;;;;;10.00;5.77;;;1.00;65.80;;;;;;5007439;28;20064;-84
2022/01/14 06:58:41;;;;;;;13.70;8.40;;;1.10;66.10;;;;;;4999057;28;20065;-84
2022/01/14 07:01:07;;;;;;;19.87;10.10;;;1.20;65.90;;;;;;5012731;28;20637;-85
2022/01/14 07:03:33;;;;;;;19.50;9.07;;;1.20;65.70;;;;;;4999292;28;20272;-85
2022/01/14 07:06:00;;;;;;;14.67;7.30;;;1.10;65.50;;;;;;4995897;28;20029;-85
2022/01/14 07:08:25;;;;;;;8.77;6.00;;;1.10;65.60;;;;;;4995436;28;20026;-85
2022/01/14 07:10:51;;;;;;;9.20;5.57;;;1.00;65.60;;;;;;4985863;28;20758;-84
2022/01/14 07:13:17;;;;;;;10.20;6.07;;;1.10;65.80;;;;;;4989174;28;20049;-85
2022/01/14 07:15:43;;;;;;;11.00;5.90;;;1.10;65.80;;;;;;5012862;28;20515;-85
2022/01/14 07:18:09;;;;;;;12.40;6.10;;;1.10;65.70;;;;;;4994913;28;20076;-84
2022/01/14 07:20:37;;;;;;;16.70;8.50;;;1.10;65.50;;;;;;4995139;28;20040;-85
2022/01/14 07:23:03;;;;;;;29.70;17.57;;;1.10;65.90;;;;;;5004798;28;20265;-85
2022/01/14 07:25:29;;;;;;;25.53;12.50;;;1.10;65.80;;;;;;4996487;28;20061;-84
2022/01/14 07:27:56;;;;;;;18.03;11.17;;;1.10;65.70;;;;;;4999283;28;20288;-85
2022/01/14 07:30:22;;;;;;;18.37;10.73;;;1.10;65.70;;;;;;4999356;28;20033;-85
2022/01/14 07:32:48;;;;;;;17.53;10.10;;;1.10;65.60;;;;;;4999151;28;20289;-85
2022/01/14 07:35:14;;;;;;;14.70;9.23;;;1.10;65.60;;;;;;5017002;28;20022;-84
2022/01/14 07:37:40;;;;;;;14.80;9.67;;;1.10;65.60;;;;;;4998949;28;20030;-85
2022/01/14 07:40:06;;;;;;;14.67;10.23;;;1.10;65.60;;;;;;4999166;28;20056;-84
2022/01/14 07:42:33;;;;;;;15.47;9.33;;;1.10;65.50;;;;;;4998882;28;20021;-85
2022/01/14 07:44:59;;;;;;;21.23;13.10;;;1.10;65.50;;;;;;4986145;28;20032;-85
2022/01/14 07:47:25;;;;;;;18.97;11.90;;;1.00;65.50;;;;;;4995596;28;20026;-85
2022/01/14 07:49:53;;;;;;;18.17;9.97;;;1.00;65.60;;;;;;4998983;28;20105;-84
2022/01/14 07:52:19;;;;;;;16.93;9.73;;;1.00;65.60;;;;;;5010006;28;20014;-85
2022/01/14 07:54:44;;;;;;;17.77;9.27;;;1.00;65.70;;;;;;4998929;28;20299;-85
2022/01/14 07:57:10;;;;;;;16.80;11.03;;;1.00;65.70;;;;;;4998534;28;20265;-84
2022/01/14 07:59:37;;;;;;;18.63;9.23;;;1.00;65.60;;;;;;5014925;28;20026;-85
2022/01/14 08:02:05;;;;;;;17.43;10.33;;;1.10;65.50;;;;;;5016026;28;20014;-85
2022/01/14 08:04:35;;;;;;;18.37;9.83;;;1.10;65.40;;;;;;5011563;28;20026;-85
2022/01/14 08:07:08;;;;;;;16.00;9.73;;;1.10;65.40;;;;;;4984477;28;20297;-85
2022/01/14 08:09:41;;;;;;;12.47;8.77;;;1.10;65.50;;;;;;4998633;28;20030;-85
2022/01/14 08:12:08;;;;;;;14.52;8.55;;;1.20;65.50;;;;;;4998247;28;20272;-85
2022/01/14 08:14:34;;;;;;;17.60;8.90;;;1.20;65.40;;;;;;5015550;28;20119;-84
2022/01/14 08:17:00;;;;;;;13.57;8.30;;;1.10;65.50;;;;;;4998231;28;20034;-84
2022/01/14 08:19:32;;;;;;;16.50;9.23;;;1.20;65.50;;;;;;4999034;28;20542;-84
2022/01/14 08:21:58;;;;;;;15.25;8.90;;;1.20;65.50;;;;;;5004291;28;20033;-84
2022/01/14 08:24:24;;;;;;;14.63;8.63;;;1.20;65.40;;;;;;4996253;28;20493;-84
2022/01/14 08:26:50;;;;;;;14.93;8.67;;;1.30;65.40;;;;;;4998267;28;20096;-85
2022/01/14 08:29:15;;;;;;;12.83;8.30;;;1.30;65.20;;;;;;4998389;28;20480;-85
2022/01/14 08:31:41;;;;;;;14.17;8.13;;;1.30;65.40;;;;;;5015421;28;20034;-84
2022/01/14 08:34:07;;;;;;;12.03;8.27;;;1.20;65.50;;;;;;4996786;28;20030;-84
2022/01/14 08:36:32;;;;;;;12.57;8.13;;;1.20;65.70;;;;;;4986218;28;20022;-84
2022/01/14 08:38:59;;;;;;;11.27;7.20;;;1.20;65.80;;;;;;4987771;28;20480;-84
2022/01/14 08:41:30;;;;;;;11.00;6.00;;;1.30;66.00;;;;;;4997810;28;20065;-85
2022/01/14 08:43:58;;;;;;;10.33;6.67;;;1.30;65.90;;;;;;5007299;28;20034;-85
2022/01/14 08:46:26;;;;;;;10.33;6.40;;;1.40;66.10;;;;;;4992208;28;20405;-84
2022/01/14 08:48:52;;;;;;;10.80;5.93;;;1.50;66.10;;;;;;5003125;28;20037;-84
2022/01/14 08:51:18;;;;;;;11.07;6.20;;;1.50;66.20;;;;;;4991054;28;20033;-85
2022/01/14 08:53:44;;;;;;;9.87;6.27;;;1.60;66.40;;;;;;5009381;28;20022;-85
2022/01/14 08:56:09;;;;;;;9.27;6.57;;;1.60;66.20;;;;;;4997703;28;20022;-85
2022/01/14 08:58:35;;;;;;;10.87;6.87;;;1.70;66.20;;;;;;4997667;28;20022;-85
2022/01/14 09:01:01;;;;;;;8.90;5.87;;;1.70;66.20;;;;;;4991237;28;20033;-85
2022/01/14 09:03:27;;;;;;;10.70;6.60;;;1.80;66.20;;;;;;4996550;28;20026;-84
2022/01/14 09:05:53;;;;;;;9.70;6.00;;;1.80;66.20;;;;;;4991260;28;20432;-84
2022/01/14 09:08:19;;;;;;;8.90;5.50;;;1.90;66.30;;;;;;4985242;28;20396;-85
2022/01/14 09:10:45;;;;;;;14.00;6.53;;;1.90;66.50;;;;;;4984592;28;20061;-85
2022/01/14 09:13:11;;;;;;;11.13;5.90;;;2.00;66.50;;;;;;5016303;28;20061;-85
2022/01/14 09:15:38;;;;;;;10.67;6.73;;;2.10;66.40;;;;;;5013898;28;20120;-85
2022/01/14 09:18:04;;;;;;;12.47;6.83;;;2.20;66.30;;;;;;4997313;28;20077;-85
2022/01/14 09:20:29;;;;;;;14.87;6.70;;;2.20;66.00;;;;;;4988819;28;20022;-85
2022/01/14 09:22:57;;;;;;;13.10;7.87;;;2.20;65.90;;;;;;4994685;28;20030;-85
2022/01/14 09:25:24;;;;;;;14.83;6.77;;;2.30;65.80;;;;;;4977923;28;20023;-85
2022/01/14 09:27:52;;;;;;;14.27;6.07;;;2.40;65.50;;;;;;4993686;28;20030;-85
2022/01/14 09:30:19;;;;;;;17.63;6.30;;;2.50;65.40;;;;;;4997077;28;20476;-85
2022/01/14 09:32:45;;;;;;;11.50;6.17;;;2.70;65.00;;;;;;4996622;28;20120;-85
2022/01/14 09:35:13;;;;;;;12.47;5.97;;;3.00;64.70;;;;;;4992627;28;20181;-86
2022/01/14 09:37:44;;;;;;;12.47;6.33;;;3.20;64.20;;;;;;4994547;28;20021;-85
2022/01/14 09:40:12;;;;;;;12.90;5.80;;;3.40;63.80;;;;;;5000569;28;20056;-85
2022/01/14 09:42:38;;;;;;;13.87;5.60;;;3.50;63.20;;;;;;5002222;28;20032;-86
2022/01/14 09:45:05;;;;;;;11.73;6.43;;;3.70;63.00;;;;;;4998579;28;20026;-83
2022/01/14 09:47:30;;;;;;;16.47;8.80;;;3.80;62.80;;;;;;5001164;28;20026;-86
2022/01/14 09:49:56;;;;;;;15.13;7.90;;;3.90;62.50;;;;;;4996757;28;20436;-86
2022/01/14 09:52:22;;;;;;;12.57;5.90;;;4.00;62.30;;;;;;5014658;28;20076;-86
2022/01/14 09:54:50;;;;;;;10.57;5.83;;;4.10;61.80;;;;;;4995174;28;20076;-87
2022/01/14 09:57:17;;;;;;;12.23;6.30;;;4.20;61.80;;;;;;4984785;28;20030;-86
2022/01/14 09:59:44;;;;;;;15.03;7.50;;;4.30;61.60;;;;;;4997364;28;20030;-87
2022/01/14 10:02:32;;;;;;;12.10;6.27;;;4.40;61.30;;;;;;4992810;28;20023;-87
2022/01/14 10:04:58;;;;;;;9.97;5.90;;;4.60;61.00;;;;;;4994272;28;20049;-86
2022/01/14 10:07:23;;;;;;;12.07;7.27;;;4.70;60.60;;;;;;4993399;28;20609;-84
2022/01/14 10:09:56;;;;;;;10.97;6.70;;;4.80;60.50;;;;;;4996747;28;20034;-84
2022/01/14 10:12:22;;;;;;;13.63;6.47;;;4.90;60.60;;;;;;5014105;28;20026;-87
2022/01/14 10:14:56;;;;;;;10.23;5.80;;;5.00;60.20;;;;;;5011378;28;20405;-87
2022/01/14 10:17:24;;;;;;;8.93;4.53;;;5.30;59.80;;;;;;4985617;28;20160;-85
2022/01/14 10:19:50;;;;;;;12.30;5.63;;;5.50;59.50;;;;;;5011485;28;20093;-85
2022/01/14 10:22:24;;;;;;;10.77;6.50;;;5.70;59.00;;;;;;4988586;28;20026;-85
2022/01/14 10:24:55;;;;;;;13.60;6.27;;;5.90;58.60;;;;;;4984820;28;20503;-85
2022/01/14 10:27:45;;;;;;;7.40;4.87;;;6.20;58.50;;;;;;4983820;28;20056;-86
2022/01/14 10:30:18;;;;;;;10.43;5.87;;;6.40;57.90;;;;;;4993188;28;20029;-85
2022/01/14 10:32:52;;;;;;;12.60;6.63;;;6.40;57.70;;;;;;5013810;28;20030;-85
2022/01/14 10:35:19;;;;;;;11.00;5.60;;;6.50;57.60;;;;;;4978902;28;20462;-88
2022/01/14 10:37:46;;;;;;;10.40;4.63;;;6.70;57.40;;;;;;5007753;28;20117;-86
2022/01/14 10:40:13;;;;;;;9.67;4.67;;;6.90;57.10;;;;;;4996122;28;20076;-86
2022/01/14 10:42:40;;;;;;;8.20;4.97;;;7.20;56.80;;;;;;4996380;28;20030;-88
2022/01/14 10:45:22;;;;;;;7.87;4.63;;;7.40;56.50;;;;;;4997147;28;20030;-86
2022/01/14 10:47:56;;;;;;;6.72;4.35;;;7.50;55.80;;;;;;4993949;28;20054;-86
2022/01/14 10:50:31;;;;;;;6.20;4.20;;;7.80;55.70;;;;;;4996011;28;20365;-88
2022/01/14 10:52:57;;;;;;;8.80;4.37;;;7.90;55.10;;;;;;4995762;28;20407;-85
2022/01/14 10:55:50;;;;;;;7.97;4.33;;;8.00;55.20;;;;;;4992824;28;20022;-88
2022/01/14 10:58:28;;;;;;;9.68;3.97;;;8.10;54.50;;;;;;4993438;28;20034;-88
2022/01/14 11:01:02;;;;;;;10.03;4.10;;;8.10;54.70;;;;;;4993094;28;20026;-86
2022/01/14 11:04:06;;;;;;;7.67;3.70;;;8.30;54.20;;;;;;4989546;28;20058;-88
2022/01/14 11:06:39;;;;;;;8.87;3.93;;;8.30;53.70;;;;;;4976718;28;20076;-89
2022/01/14 11:09:05;;;;;;;5.67;2.67;;;8.40;53.80;;;;;;4995245;28;20030;-86
2022/01/14 11:11:36;;;;;;;6.83;3.50;;;8.50;53.50;;;;;;4995431;28;20041;-86
2022/01/14 11:14:03;;;;;;;6.40;3.77;;;8.50;52.40;;;;;;4981399;28;20034;-86
2022/01/14 11:16:30;;;;;;;6.20;3.77;;;8.30;52.40;;;;;;4994846;28;20067;-85
2022/01/14 11:18:58;;;;;;;11.93;3.73;;;8.40;52.50;;;;;;5009139;28;20465;-86
2022/01/14 11:24:23;;;;;;;16.20;4.13;;;8.50;52.30;;;;;;5002158;28;20060;-85
2022/01/14 11:26:50;;;;;;;7.13;4.07;;;8.60;52.20;;;;;;4993989;28;20030;-86
2022/01/14 11:29:20;;;;;;;12.07;4.00;;;8.80;52.10;;;;;;5007730;28;20030;-86
2022/01/14 11:31:57;;;;;;;4.90;3.47;;;8.90;51.80;;;;;;4976076;28;20035;-86
2022/01/14 11:34:55;;;;;;;9.53;3.53;;;9.10;51.60;;;;;;4976037;28;20032;-86
2022/01/14 11:37:32;;;;;;;8.50;4.10;;;9.10;50.90;;;;;;4968524;28;20041;-86
2022/01/14 11:39:59;;;;;;;10.47;4.43;;;9.00;50.80;;;;;;5013337;28;20033;-87
2022/01/14 11:42:44;;;;;;;6.93;3.40;;;8.90;50.90;;;;;;4991686;28;20034;-86
2022/01/14 11:45:15;;;;;;;9.87;3.70;;;9.00;50.80;;;;;;5007575;28;20389;-86
2022/01/14 11:47:45;;;;;;;7.83;3.50;;;9.10;50.80;;;;;;4982346;28;20373;-86
2022/01/14 11:50:21;;;;;;;8.80;3.47;;;9.20;50.90;;;;;;4995343;28;20052;-86
2022/01/14 11:52:48;;;;;;;11.17;3.37;;;9.20;50.00;;;;;;4995420;28;20050;-86
2022/01/14 11:55:23;;;;;;;5.87;3.90;;;9.30;50.10;;;;;;4995419;28;20477;-86
2022/01/14 11:57:50;;;;;;;6.63;3.90;;;9.40;49.90;;;;;;4980301;28;20384;-86
2022/01/14 12:00:27;;;;;;;6.80;3.70;;;9.40;50.00;;;;;;4996020;28;20429;-86
2022/01/14 12:02:54;;;;;;;4.50;3.23;;;9.50;49.80;;;;;;4987445;28;20030;-86
2022/01/14 12:05:30;;;;;;;6.97;3.87;;;9.60;49.70;;;;;;4995953;28;20022;-86
2022/01/14 12:08:02;;;;;;;7.70;3.33;;;9.60;49.60;;;;;;4995236;28;20026;-86
2022/01/14 12:10:32;;;;;;;6.82;3.00;;;9.70;49.40;;;;;;4995181;28;20500;-86
2022/01/14 12:13:49;;;;;;;7.40;2.97;;;9.70;49.20;;;;;;5015936;28;20030;-86
2022/01/14 12:16:35;;;;;;;7.13;2.80;;;9.80;48.90;;;;;;5015057;28;20069;-86
2022/01/14 12:19:03;;;;;;;117.57;39.70;;;9.80;49.10;;;;;;4998795;28;20037;-86
2022/01/14 12:21:41;;;;;;;24.70;9.90;;;9.90;49.20;;;;;;4998258;28;20400;-85
2022/01/14 12:24:18;;;;;;;89.60;28.77;;;9.90;48.90;;;;;;4979087;28;20530;-86
2022/01/14 12:27:08;;;;;;;38.30;12.97;;;9.90;49.00;;;;;;4979649;28;20530;-86
2022/01/14 12:29:38;;;;;;;12.80;5.07;;;9.80;49.60;;;;;;4996817;28;20030;-86
2022/01/14 12:32:20;;;;;;;16.33;6.20;;;9.70;49.40;;;;;;4992491;28;20026;-86
2022/01/14 12:34:48;;;;;;;12.13;5.73;;;9.70;49.50;;;;;;4998848;28;20117;-85
2022/01/14 12:37:30;;;;;;;15.27;5.33;;;9.70;49.60;;;;;;4998625;28;20029;-86
2022/01/14 12:39:58;;;;;;;12.27;5.17;;;9.80;49.40;;;;;;4986423;28;20104;-86
2022/01/14 12:42:24;;;;;;;12.40;5.50;;;9.70;49.60;;;;;;4998857;28;20495;-86
2022/01/14 12:44:52;;;;;;;13.43;5.73;;;9.80;49.60;;;;;;4998381;28;20030;-86
2022/01/14 12:47:27;;;;;;;12.70;4.67;;;9.80;49.50;;;;;;4998416;28;20025;-86
2022/01/14 12:49:53;;;;;;;11.70;5.10;;;9.80;49.50;;;;;;4998709;28;20113;-86
2022/01/14 12:52:38;;;;;;;24.27;9.77;;;9.70;49.80;;;;;;4996635;28;20499;-86
2022/01/14 12:55:06;;;;;;;45.17;12.97;;;9.80;49.90;;;;;;4985306;28;20037;-88
2022/01/14 12:57:32;;;;;;;82.97;20.07;;;9.60;49.90;;;;;;4990480;28;20028;-86
2022/01/14 12:59:59;;;;;;;51.60;15.57;;;9.60;50.20;;;;;;5002710;28;20022;-86
2022/01/14 13:02:29;;;;;;;19.47;7.20;;;9.50;50.30;;;;;;5010983;28;20084;-86
2022/01/14 13:05:16;;;;;;;11.37;5.10;;;9.60;50.30;;;;;;4997544;28;20029;-86
2022/01/14 13:07:43;;;;;;;9.03;5.13;;;9.50;50.30;;;;;;4989654;28;20541;-86
2022/01/14 13:10:12;;;;;;;15.93;5.80;;;9.50;50.40;;;;;;4979398;28;20145;-87
2022/01/14 13:12:41;;;;;;;11.33;5.30;;;9.50;50.40;;;;;;4996058;28;20030;-87
2022/01/14 13:15:12;;;;;;;14.03;6.57;;;9.50;50.50;;;;;;4981121;28;20416;-87
2022/01/14 13:17:43;;;;;;;23.40;9.27;;;9.50;50.50;;;;;;4997795;28;20021;-86
2022/01/14 13:20:12;;;;;;;12.43;5.27;;;9.50;50.30;;;;;;4998798;28;20022;-86
2022/01/14 13:22:40;;;;;;;15.40;6.87;;;9.50;50.40;;;;;;4996249;28;20121;-86
2022/01/14 13:25:14;;;;;;;17.37;5.77;;;9.50;50.40;;;;;;4997238;28;20032;-86